sensor_id;sensor_type;location;lat;lon;timestamp;P1;durP1;ratioP1;P2;durP2;ratioP2
74227;SDS011;62587;52.352;5.006;2022-09-11T00:00:47;4.82;;;3.60;;
74227;SDS011;62587;52.352;5.006;2022-09-11T00:03:14;4.10;;;3.13;;
74227;SDS011;62587;52.352;5.006;2022-09-11T00:05:40;3.88;;;3.45;;
74227;SDS011;62587;52.352;5.006;2022-09-11T00:08:08;4.45;;;3.30;;
74227;SDS011;62587;52.352;5.006;2022-09-11T00:10:39;3.90;;;3.60;;
74227;SDS011;62587;52.352;5.006;2022-09-11T00:13:07;3.80;;;3.40;;
74227;SDS011;62587;52.352;5.006;2022-09-11T00:15:38;4.28;;;3.88;;
74227;SDS011;62587;52.352;5.006;2022-09-11T00:18:05;4.50;;;3.35;;
74227;SDS011;62587;52.352;5.006;2022-09-11T00:20:32;3.83;;;3.33;;
74227;SDS011;62587;52.352;5.006;2022-09-11T00:22:58;6.57;;;2.97;;
74227;SDS011;62587;52.352;5.006;2022-09-11T00:25:29;3.85;;;3.50;;
74227;SDS011;62587;52.352;5.006;2022-09-11T00:27:57;5.13;;;3.50;;
74227;SDS011;62587;52.352;5.006;2022-09-11T00:30:23;4.47;;;3.70;;
74227;SDS011;62587;52.352;5.006;2022-09-11T00:32:48;4.65;;;4.00;;
74227;SDS011;62587;52.352;5.006;2022-09-11T00:35:14;4.72;;;3.85;;
74227;SDS011;62587;52.352;5.006;2022-09-11T00:37:39;4.45;;;3.67;;
74227;SDS011;62587;52.352;5.006;2022-09-11T00:40:05;4.53;;;3.75;;
74227;SDS011;62587;52.352;5.006;2022-09-11T00:42:31;4.43;;;3.67;;
74227;SDS011;62587;52.352;5.006;2022-09-11T00:44:57;4.90;;;3.53;;
74227;SDS011;62587;52.352;5.006;2022-09-11T00:47:25;4.47;;;4.03;;
74227;SDS011;62587;52.352;5.006;2022-09-11T00:49:51;4.95;;;3.72;;
74227;SDS011;62587;52.352;5.006;2022-09-11T00:52:24;4.85;;;3.55;;
74227;SDS011;62587;52.352;5.006;2022-09-11T00:55:01;5.22;;;3.83;;
74227;SDS011;62587;52.352;5.006;2022-09-11T00:57:32;3.92;;;3.53;;
74227;SDS011;62587;52.352;5.006;2022-09-11T01:00:03;6.25;;;4.18;;
74227;SDS011;62587;52.352;5.006;2022-09-11T01:02:30;4.88;;;4.05;;
74227;SDS011;62587;52.352;5.006;2022-09-11T01:04:58;5.60;;;4.07;;
74227;SDS011;62587;52.352;5.006;2022-09-11T01:07:25;4.32;;;3.92;;
74227;SDS011;62587;52.352;5.006;2022-09-11T01:09:52;4.63;;;4.15;;
74227;SDS011;62587;52.352;5.006;2022-09-11T01:12:22;6.45;;;3.97;;
74227;SDS011;62587;52.352;5.006;2022-09-11T01:15:01;6.68;;;4.40;;
74227;SDS011;62587;52.352;5.006;2022-09-11T01:20:45;6.50;;;3.85;;
74227;SDS011;62587;52.352;5.006;2022-09-11T01:23:27;6.35;;;3.70;;
74227;SDS011;62587;52.352;5.006;2022-09-11T01:28:53;5.78;;;4.25;;
74227;SDS011;62587;52.352;5.006;2022-09-11T01:31:28;7.53;;;4.13;;
74227;SDS011;62587;52.352;5.006;2022-09-11T01:33:58;6.68;;;4.38;;
74227;SDS011;62587;52.352;5.006;2022-09-11T01:36:33;6.38;;;4.68;;
74227;SDS011;62587;52.352;5.006;2022-09-11T01:39:03;8.00;;;4.63;;
74227;SDS011;62587;52.352;5.006;2022-09-11T01:41:31;5.40;;;4.30;;
74227;SDS011;62587;52.352;5.006;2022-09-11T01:44:08;4.80;;;3.90;;
74227;SDS011;62587;52.352;5.006;2022-09-11T01:46:39;6.95;;;3.97;;
74227;SDS011;62587;52.352;5.006;2022-09-11T01:49:14;6.32;;;4.47;;
74227;SDS011;62587;52.352;5.006;2022-09-11T01:51:42;6.15;;;4.47;;
74227;SDS011;62587;52.352;5.006;2022-09-11T01:54:18;5.85;;;4.88;;
74227;SDS011;62587;52.352;5.006;2022-09-11T01:56:51;6.47;;;4.65;;
74227;SDS011;62587;52.352;5.006;2022-09-11T01:59:23;7.65;;;4.65;;
74227;SDS011;62587;52.352;5.006;2022-09-11T02:02:15;5.80;;;4.82;;
74227;SDS011;62587;52.352;5.006;2022-09-11T02:04:51;6.05;;;5.20;;
74227;SDS011;62587;52.352;5.006;2022-09-11T02:07:31;6.65;;;4.80;;
74227;SDS011;62587;52.352;5.006;2022-09-11T02:10:22;5.18;;;4.68;;
74227;SDS011;62587;52.352;5.006;2022-09-11T02:13:29;6.22;;;4.25;;
74227;SDS011;62587;52.352;5.006;2022-09-11T02:15:56;9.57;;;5.18;;
74227;SDS011;62587;52.352;5.006;2022-09-11T02:18:49;7.70;;;4.70;;
74227;SDS011;62587;52.352;5.006;2022-09-11T02:21:25;10.45;;;6.18;;
74227;SDS011;62587;52.352;5.006;2022-09-11T02:23:52;8.52;;;5.03;;
74227;SDS011;62587;52.352;5.006;2022-09-11T02:26:20;9.73;;;5.25;;
74227;SDS011;62587;52.352;5.006;2022-09-11T02:28:48;8.07;;;4.97;;
74227;SDS011;62587;52.352;5.006;2022-09-11T02:31:15;9.13;;;5.30;;
74227;SDS011;62587;52.352;5.006;2022-09-11T02:33:44;8.82;;;5.57;;
74227;SDS011;62587;52.352;5.006;2022-09-11T02:36:22;10.40;;;6.10;;
74227;SDS011;62587;52.352;5.006;2022-09-11T02:38:59;6.80;;;5.03;;
74227;SDS011;62587;52.352;5.006;2022-09-11T02:53:00;8.40;;;5.15;;
74227;SDS011;62587;52.352;5.006;2022-09-11T03:00:57;7.28;;;5.20;;
74227;SDS011;62587;52.352;5.006;2022-09-11T03:03:24;10.90;;;5.43;;
74227;SDS011;62587;52.352;5.006;2022-09-11T03:05:49;8.80;;;5.47;;
74227;SDS011;62587;52.352;5.006;2022-09-11T03:08:15;6.68;;;4.80;;
74227;SDS011;62587;52.352;5.006;2022-09-11T03:10:41;6.55;;;4.78;;
74227;SDS011;62587;52.352;5.006;2022-09-11T03:13:10;9.10;;;5.70;;
74227;SDS011;62587;52.352;5.006;2022-09-11T03:15:37;5.47;;;4.53;;
74227;SDS011;62587;52.352;5.006;2022-09-11T03:18:02;6.15;;;4.57;;
74227;SDS011;62587;52.352;5.006;2022-09-11T03:20:29;7.95;;;4.68;;
74227;SDS011;62587;52.352;5.006;2022-09-11T03:22:54;7.00;;;4.78;;
74227;SDS011;62587;52.352;5.006;2022-09-11T03:25:19;6.93;;;4.87;;
74227;SDS011;62587;52.352;5.006;2022-09-11T03:27:47;6.00;;;4.47;;
74227;SDS011;62587;52.352;5.006;2022-09-11T03:30:12;5.23;;;4.67;;
74227;SDS011;62587;52.352;5.006;2022-09-11T03:32:38;6.78;;;4.90;;
74227;SDS011;62587;52.352;5.006;2022-09-11T03:35:03;6.65;;;5.05;;
74227;SDS011;62587;52.352;5.006;2022-09-11T03:37:29;6.47;;;4.88;;
74227;SDS011;62587;52.352;5.006;2022-09-11T03:39:54;8.52;;;5.35;;
74227;SDS011;62587;52.352;5.006;2022-09-11T03:42:19;8.27;;;4.65;;
74227;SDS011;62587;52.352;5.006;2022-09-11T03:44:45;5.15;;;4.65;;
74227;SDS011;62587;52.352;5.006;2022-09-11T03:47:10;4.85;;;4.30;;
74227;SDS011;62587;52.352;5.006;2022-09-11T03:49:36;5.72;;;4.95;;
74227;SDS011;62587;52.352;5.006;2022-09-11T03:52:02;5.63;;;4.70;;
74227;SDS011;62587;52.352;5.006;2022-09-11T03:54:28;5.80;;;4.60;;
74227;SDS011;62587;52.352;5.006;2022-09-11T03:56:54;5.05;;;4.40;;
74227;SDS011;62587;52.352;5.006;2022-09-11T03:59:20;5.72;;;4.72;;
74227;SDS011;62587;52.352;5.006;2022-09-11T04:01:45;5.60;;;4.90;;
74227;SDS011;62587;52.352;5.006;2022-09-11T04:04:14;6.70;;;4.35;;
74227;SDS011;62587;52.352;5.006;2022-09-11T04:06:40;5.05;;;4.53;;
74227;SDS011;62587;52.352;5.006;2022-09-11T04:09:05;5.55;;;4.60;;
74227;SDS011;62587;52.352;5.006;2022-09-11T04:11:31;5.20;;;4.53;;
74227;SDS011;62587;52.352;5.006;2022-09-11T04:13:56;5.80;;;4.68;;
74227;SDS011;62587;52.352;5.006;2022-09-11T04:16:23;4.95;;;4.45;;
74227;SDS011;62587;52.352;5.006;2022-09-11T04:18:48;6.03;;;4.38;;
74227;SDS011;62587;52.352;5.006;2022-09-11T04:21:16;4.93;;;4.43;;
74227;SDS011;62587;52.352;5.006;2022-09-11T04:23:42;5.80;;;4.30;;
74227;SDS011;62587;52.352;5.006;2022-09-11T04:26:19;5.18;;;4.20;;
74227;SDS011;62587;52.352;5.006;2022-09-11T04:28:46;4.57;;;4.05;;
74227;SDS011;62587;52.352;5.006;2022-09-11T04:31:12;5.22;;;4.15;;
74227;SDS011;62587;52.352;5.006;2022-09-11T04:33:38;4.22;;;3.83;;
74227;SDS011;62587;52.352;5.006;2022-09-11T04:36:08;4.38;;;3.97;;
74227;SDS011;62587;52.352;5.006;2022-09-11T04:38:37;4.78;;;4.22;;
74227;SDS011;62587;52.352;5.006;2022-09-11T04:41:05;4.50;;;4.10;;
74227;SDS011;62587;52.352;5.006;2022-09-11T04:43:35;4.85;;;4.30;;
74227;SDS011;62587;52.352;5.006;2022-09-11T04:46:15;5.88;;;4.38;;
74227;SDS011;62587;52.352;5.006;2022-09-11T04:48:44;4.47;;;4.05;;
74227;SDS011;62587;52.352;5.006;2022-09-11T04:51:11;5.43;;;4.00;;
74227;SDS011;62587;52.352;5.006;2022-09-11T04:56:10;4.38;;;3.92;;
74227;SDS011;62587;52.352;5.006;2022-09-11T04:58:37;4.38;;;3.97;;
74227;SDS011;62587;52.352;5.006;2022-09-11T05:01:10;4.20;;;3.80;;
74227;SDS011;62587;52.352;5.006;2022-09-11T05:03:39;4.10;;;3.70;;
74227;SDS011;62587;52.352;5.006;2022-09-11T05:06:08;4.35;;;3.53;;
74227;SDS011;62587;52.352;5.006;2022-09-11T05:08:34;3.85;;;3.53;;
74227;SDS011;62587;52.352;5.006;2022-09-11T05:11:01;5.18;;;3.72;;
74227;SDS011;62587;52.352;5.006;2022-09-11T05:13:30;4.43;;;3.60;;
74227;SDS011;62587;52.352;5.006;2022-09-11T05:16:02;3.67;;;3.13;;
74227;SDS011;62587;52.352;5.006;2022-09-11T05:18:28;4.90;;;3.67;;
74227;SDS011;62587;52.352;5.006;2022-09-11T05:20:57;4.70;;;3.30;;
74227;SDS011;62587;52.352;5.006;2022-09-11T05:23:30;4.75;;;3.60;;
74227;SDS011;62587;52.352;5.006;2022-09-11T05:26:00;3.88;;;3.55;;
74227;SDS011;62587;52.352;5.006;2022-09-11T05:28:27;4.20;;;3.13;;
74227;SDS011;62587;52.352;5.006;2022-09-11T05:30:53;4.13;;;3.78;;
74227;SDS011;62587;52.352;5.006;2022-09-11T05:33:23;4.45;;;3.88;;
74227;SDS011;62587;52.352;5.006;2022-09-11T05:35:50;3.25;;;2.95;;
74227;SDS011;62587;52.352;5.006;2022-09-11T05:38:19;4.63;;;3.67;;
74227;SDS011;62587;52.352;5.006;2022-09-11T05:40:46;4.18;;;3.45;;
74227;SDS011;62587;52.352;5.006;2022-09-11T05:43:13;3.83;;;3.53;;
74227;SDS011;62587;52.352;5.006;2022-09-11T05:45:43;4.68;;;3.53;;
74227;SDS011;62587;52.352;5.006;2022-09-11T05:48:09;4.75;;;3.60;;
74227;SDS011;62587;52.352;5.006;2022-09-11T05:50:35;3.75;;;3.15;;
74227;SDS011;62587;52.352;5.006;2022-09-11T05:53:02;5.15;;;3.40;;
74227;SDS011;62587;52.352;5.006;2022-09-11T05:55:28;4.63;;;3.35;;
74227;SDS011;62587;52.352;5.006;2022-09-11T05:57:53;4.32;;;3.40;;
74227;SDS011;62587;52.352;5.006;2022-09-11T06:00:19;3.53;;;3.20;;
74227;SDS011;62587;52.352;5.006;2022-09-11T06:02:45;3.90;;;3.35;;
74227;SDS011;62587;52.352;5.006;2022-09-11T06:05:12;5.45;;;3.30;;
74227;SDS011;62587;52.352;5.006;2022-09-11T06:07:39;4.93;;;3.22;;
74227;SDS011;62587;52.352;5.006;2022-09-11T06:10:04;4.32;;;3.45;;
74227;SDS011;62587;52.352;5.006;2022-09-11T06:12:31;3.88;;;3.58;;
74227;SDS011;62587;52.352;5.006;2022-09-11T06:14:56;5.72;;;3.30;;
74227;SDS011;62587;52.352;5.006;2022-09-11T06:17:22;4.93;;;3.23;;
74227;SDS011;62587;52.352;5.006;2022-09-11T06:19:48;3.45;;;3.13;;
74227;SDS011;62587;52.352;5.006;2022-09-11T06:22:13;3.67;;;3.38;;
74227;SDS011;62587;52.352;5.006;2022-09-11T06:24:38;3.22;;;2.92;;
74227;SDS011;62587;52.352;5.006;2022-09-11T06:27:04;3.83;;;3.22;;
74227;SDS011;62587;52.352;5.006;2022-09-11T06:29:29;3.53;;;3.20;;
74227;SDS011;62587;52.352;5.006;2022-09-11T06:31:58;3.40;;;3.10;;
74227;SDS011;62587;52.352;5.006;2022-09-11T06:34:24;3.38;;;2.95;;
74227;SDS011;62587;52.352;5.006;2022-09-11T06:36:49;3.38;;;2.88;;
74227;SDS011;62587;52.352;5.006;2022-09-11T06:39:15;4.07;;;3.03;;
74227;SDS011;62587;52.352;5.006;2022-09-11T06:41:40;2.90;;;2.45;;
74227;SDS011;62587;52.352;5.006;2022-09-11T06:44:06;4.13;;;2.47;;
74227;SDS011;62587;52.352;5.006;2022-09-11T06:46:33;3.20;;;2.60;;
74227;SDS011;62587;52.352;5.006;2022-09-11T06:48:59;2.75;;;2.40;;
74227;SDS011;62587;52.352;5.006;2022-09-11T06:51:25;3.78;;;3.05;;
74227;SDS011;62587;52.352;5.006;2022-09-11T06:53:55;3.30;;;2.65;;
74227;SDS011;62587;52.352;5.006;2022-09-11T06:56:22;3.45;;;2.70;;
74227;SDS011;62587;52.352;5.006;2022-09-11T06:58:47;4.28;;;2.60;;
74227;SDS011;62587;52.352;5.006;2022-09-11T07:01:17;2.85;;;2.42;;
74227;SDS011;62587;52.352;5.006;2022-09-11T07:03:44;2.63;;;2.42;;
74227;SDS011;62587;52.352;5.006;2022-09-11T07:06:15;3.53;;;2.33;;
74227;SDS011;62587;52.352;5.006;2022-09-11T07:08:42;2.60;;;2.40;;
74227;SDS011;62587;52.352;5.006;2022-09-11T07:11:08;3.65;;;2.53;;
74227;SDS011;62587;52.352;5.006;2022-09-11T07:13:37;2.92;;;2.63;;
74227;SDS011;62587;52.352;5.006;2022-09-11T07:16:04;3.92;;;2.38;;
74227;SDS011;62587;52.352;5.006;2022-09-11T07:18:49;2.67;;;2.47;;
74227;SDS011;62587;52.352;5.006;2022-09-11T07:21:16;3.60;;;2.65;;
74227;SDS011;62587;52.352;5.006;2022-09-11T07:23:50;4.35;;;2.80;;
74227;SDS011;62587;52.352;5.006;2022-09-11T07:26:18;4.20;;;2.80;;
74227;SDS011;62587;52.352;5.006;2022-09-11T07:28:45;3.40;;;2.70;;
74227;SDS011;62587;52.352;5.006;2022-09-11T07:31:14;2.70;;;2.50;;
74227;SDS011;62587;52.352;5.006;2022-09-11T07:33:42;4.07;;;2.55;;
74227;SDS011;62587;52.352;5.006;2022-09-11T07:36:13;4.28;;;2.45;;
74227;SDS011;62587;52.352;5.006;2022-09-11T07:38:41;4.00;;;2.70;;
74227;SDS011;62587;52.352;5.006;2022-09-11T07:41:08;3.88;;;2.40;;
74227;SDS011;62587;52.352;5.006;2022-09-11T07:43:34;3.10;;;2.70;;
74227;SDS011;62587;52.352;5.006;2022-09-11T07:46:04;3.78;;;2.50;;
74227;SDS011;62587;52.352;5.006;2022-09-11T07:48:30;3.42;;;2.30;;
74227;SDS011;62587;52.352;5.006;2022-09-11T07:50:56;3.08;;;2.45;;
74227;SDS011;62587;52.352;5.006;2022-09-11T07:53:23;4.15;;;2.83;;
74227;SDS011;62587;52.352;5.006;2022-09-11T07:55:50;3.90;;;2.30;;
74227;SDS011;62587;52.352;5.006;2022-09-11T07:58:15;2.53;;;2.17;;
74227;SDS011;62587;52.352;5.006;2022-09-11T08:00:41;4.15;;;2.97;;
74227;SDS011;62587;52.352;5.006;2022-09-11T08:03:06;2.67;;;2.20;;
74227;SDS011;62587;52.352;5.006;2022-09-11T08:05:31;2.92;;;2.47;;
74227;SDS011;62587;52.352;5.006;2022-09-11T08:07:57;3.47;;;2.63;;
74227;SDS011;62587;52.352;5.006;2022-09-11T08:10:22;2.85;;;2.28;;
74227;SDS011;62587;52.352;5.006;2022-09-11T08:12:48;2.53;;;2.33;;
74227;SDS011;62587;52.352;5.006;2022-09-11T08:15:13;2.72;;;2.35;;
74227;SDS011;62587;52.352;5.006;2022-09-11T08:17:38;2.78;;;2.15;;
74227;SDS011;62587;52.352;5.006;2022-09-11T08:20:04;2.10;;;1.90;;
74227;SDS011;62587;52.352;5.006;2022-09-11T08:22:33;2.72;;;2.25;;
74227;SDS011;62587;52.352;5.006;2022-09-11T08:24:58;3.03;;;2.03;;
74227;SDS011;62587;52.352;5.006;2022-09-11T08:27:24;3.88;;;2.30;;
74227;SDS011;62587;52.352;5.006;2022-09-11T08:29:52;2.07;;;1.87;;
74227;SDS011;62587;52.352;5.006;2022-09-11T08:32:18;2.80;;;2.10;;
74227;SDS011;62587;52.352;5.006;2022-09-11T08:34:44;2.95;;;1.90;;
74227;SDS011;62587;52.352;5.006;2022-09-11T08:37:09;2.37;;;1.97;;
74227;SDS011;62587;52.352;5.006;2022-09-11T08:39:34;3.17;;;2.43;;
74227;SDS011;62587;52.352;5.006;2022-09-11T08:42:11;4.90;;;2.17;;
74227;SDS011;62587;52.352;5.006;2022-09-11T08:47:14;3.70;;;1.80;;
74227;SDS011;62587;52.352;5.006;2022-09-11T08:49:45;3.10;;;2.22;;
74227;SDS011;62587;52.352;5.006;2022-09-11T08:52:16;3.10;;;2.20;;
74227;SDS011;62587;52.352;5.006;2022-09-11T08:54:42;2.85;;;2.10;;
74227;SDS011;62587;52.352;5.006;2022-09-11T08:59:55;4.53;;;2.30;;
74227;SDS011;62587;52.352;5.006;2022-09-11T09:02:54;2.10;;;1.80;;
74227;SDS011;62587;52.352;5.006;2022-09-11T09:05:48;2.20;;;1.90;;
74227;SDS011;62587;52.352;5.006;2022-09-11T09:22:12;3.67;;;1.95;;
74227;SDS011;62587;52.352;5.006;2022-09-11T09:24:48;2.92;;;2.00;;
74227;SDS011;62587;52.352;5.006;2022-09-11T09:27:18;3.63;;;2.00;;
74227;SDS011;62587;52.352;5.006;2022-09-11T09:29:51;2.83;;;1.73;;
74227;SDS011;62587;52.352;5.006;2022-09-11T09:32:24;1.95;;;1.67;;
74227;SDS011;62587;52.352;5.006;2022-09-11T09:34:57;5.47;;;1.90;;
74227;SDS011;62587;52.352;5.006;2022-09-11T09:37:27;2.95;;;1.92;;
74227;SDS011;62587;52.352;5.006;2022-09-11T09:39:52;3.08;;;2.13;;
74227;SDS011;62587;52.352;5.006;2022-09-11T09:42:23;4.10;;;2.20;;
74227;SDS011;62587;52.352;5.006;2022-09-11T09:48:12;3.60;;;2.10;;
74227;SDS011;62587;52.352;5.006;2022-09-11T09:50:38;3.97;;;1.70;;
74227;SDS011;62587;52.352;5.006;2022-09-11T09:55:39;2.47;;;1.88;;
74227;SDS011;62587;52.352;5.006;2022-09-11T09:58:06;2.47;;;1.92;;
74227;SDS011;62587;52.352;5.006;2022-09-11T10:00:32;3.55;;;1.88;;
74227;SDS011;62587;52.352;5.006;2022-09-11T10:03:10;3.50;;;2.05;;
74227;SDS011;62587;52.352;5.006;2022-09-11T10:05:42;1.73;;;1.60;;
74227;SDS011;62587;52.352;5.006;2022-09-11T10:13:33;3.88;;;1.92;;
74227;SDS011;62587;52.352;5.006;2022-09-11T10:16:02;3.35;;;2.10;;
74227;SDS011;62587;52.352;5.006;2022-09-11T10:21:19;4.53;;;1.77;;
74227;SDS011;62587;52.352;5.006;2022-09-11T10:26:15;3.17;;;1.85;;
74227;SDS011;62587;52.352;5.006;2022-09-11T10:28:43;2.58;;;1.80;;
74227;SDS011;62587;52.352;5.006;2022-09-11T10:31:12;2.00;;;1.60;;
74227;SDS011;62587;52.352;5.006;2022-09-11T10:33:40;2.10;;;1.70;;
74227;SDS011;62587;52.352;5.006;2022-09-11T10:36:11;3.00;;;1.80;;
74227;SDS011;62587;52.352;5.006;2022-09-11T10:51:27;1.93;;;1.53;;
74227;SDS011;62587;52.352;5.006;2022-09-11T10:59:35;2.95;;;1.67;;
74227;SDS011;62587;52.352;5.006;2022-09-11T11:02:24;5.63;;;1.80;;
74227;SDS011;62587;52.352;5.006;2022-09-11T11:04:56;4.38;;;1.70;;
74227;SDS011;62587;52.352;5.006;2022-09-11T11:07:34;1.90;;;1.70;;
74227;SDS011;62587;52.352;5.006;2022-09-11T11:12:45;3.45;;;1.80;;
74227;SDS011;62587;52.352;5.006;2022-09-11T11:18:21;2.42;;;1.50;;
74227;SDS011;62587;52.352;5.006;2022-09-11T11:29:20;3.53;;;1.35;;
74227;SDS011;62587;52.352;5.006;2022-09-11T11:37:32;2.47;;;1.70;;
74227;SDS011;62587;52.352;5.006;2022-09-11T11:42:44;3.00;;;1.50;;
74227;SDS011;62587;52.352;5.006;2022-09-11T11:45:24;2.10;;;1.70;;
74227;SDS011;62587;52.352;5.006;2022-09-11T11:47:55;3.00;;;1.95;;
74227;SDS011;62587;52.352;5.006;2022-09-11T11:50:32;2.20;;;1.33;;
74227;SDS011;62587;52.352;5.006;2022-09-11T11:53:09;2.22;;;1.52;;
74227;SDS011;62587;52.352;5.006;2022-09-11T11:56:03;2.28;;;1.60;;
74227;SDS011;62587;52.352;5.006;2022-09-11T12:01:23;2.13;;;1.52;;
74227;SDS011;62587;52.352;5.006;2022-09-11T12:09:01;2.03;;;1.60;;
74227;SDS011;62587;52.352;5.006;2022-09-11T12:11:29;4.45;;;1.60;;
74227;SDS011;62587;52.352;5.006;2022-09-11T12:13:56;1.77;;;1.50;;
74227;SDS011;62587;52.352;5.006;2022-09-11T12:16:27;2.40;;;1.60;;
74227;SDS011;62587;52.352;5.006;2022-09-11T12:21:37;3.17;;;1.80;;
74227;SDS011;62587;52.352;5.006;2022-09-11T12:26:29;2.53;;;1.40;;
74227;SDS011;62587;52.352;5.006;2022-09-11T12:35:10;2.38;;;1.58;;
74227;SDS011;62587;52.352;5.006;2022-09-11T12:39:45;1.60;;;1.40;;
74227;SDS011;62587;52.352;5.006;2022-09-11T12:47:10;2.03;;;1.50;;
74227;SDS011;62587;52.352;5.006;2022-09-11T12:49:52;1.58;;;1.33;;
74227;SDS011;62587;52.352;5.006;2022-09-11T12:52:22;2.72;;;1.50;;
74227;SDS011;62587;52.352;5.006;2022-09-11T12:54:54;1.73;;;1.30;;
74227;SDS011;62587;52.352;5.006;2022-09-11T12:57:27;2.38;;;1.23;;
74227;SDS011;62587;52.352;5.006;2022-09-11T13:00:00;1.92;;;1.35;;
74227;SDS011;62587;52.352;5.006;2022-09-11T13:02:41;3.08;;;1.55;;
74227;SDS011;62587;52.352;5.006;2022-09-11T13:05:19;2.10;;;1.90;;
74227;SDS011;62587;52.352;5.006;2022-09-11T13:07:55;2.25;;;1.40;;
74227;SDS011;62587;52.352;5.006;2022-09-11T13:10:32;1.67;;;1.50;;
74227;SDS011;62587;52.352;5.006;2022-09-11T13:13:03;2.80;;;1.52;;
74227;SDS011;62587;52.352;5.006;2022-09-11T13:17:55;2.47;;;1.50;;
74227;SDS011;62587;52.352;5.006;2022-09-11T13:20:21;2.47;;;1.42;;
74227;SDS011;62587;52.352;5.006;2022-09-11T13:22:48;1.85;;;1.52;;
74227;SDS011;62587;52.352;5.006;2022-09-11T13:25:21;1.98;;;1.38;;
74227;SDS011;62587;52.352;5.006;2022-09-11T13:27:51;2.25;;;1.20;;
74227;SDS011;62587;52.352;5.006;2022-09-11T13:30:19;1.92;;;1.27;;
74227;SDS011;62587;52.352;5.006;2022-09-11T13:32:47;2.47;;;1.40;;
74227;SDS011;62587;52.352;5.006;2022-09-11T13:35:15;3.17;;;1.90;;
74227;SDS011;62587;52.352;5.006;2022-09-11T13:40:53;2.15;;;1.50;;
74227;SDS011;62587;52.352;5.006;2022-09-11T13:43:23;1.95;;;1.33;;
74227;SDS011;62587;52.352;5.006;2022-09-11T13:46:08;2.03;;;1.60;;
74227;SDS011;62587;52.352;5.006;2022-09-11T13:48:34;1.73;;;1.38;;
74227;SDS011;62587;52.352;5.006;2022-09-11T13:51:00;2.35;;;1.48;;
74227;SDS011;62587;52.352;5.006;2022-09-11T13:53:28;2.72;;;1.30;;
74227;SDS011;62587;52.352;5.006;2022-09-11T13:55:55;2.05;;;1.40;;
74227;SDS011;62587;52.352;5.006;2022-09-11T13:58:21;2.27;;;1.60;;
74227;SDS011;62587;52.352;5.006;2022-09-11T14:00:48;2.00;;;1.40;;
74227;SDS011;62587;52.352;5.006;2022-09-11T14:05:55;2.25;;;1.35;;
74227;SDS011;62587;52.352;5.006;2022-09-11T14:08:29;2.55;;;1.50;;
74227;SDS011;62587;52.352;5.006;2022-09-11T14:11:04;1.50;;;1.20;;
74227;SDS011;62587;52.352;5.006;2022-09-11T14:13:40;1.63;;;1.42;;
74227;SDS011;62587;52.352;5.006;2022-09-11T14:21:33;1.88;;;1.52;;
74227;SDS011;62587;52.352;5.006;2022-09-11T14:24:00;2.13;;;1.42;;
74227;SDS011;62587;52.352;5.006;2022-09-11T14:29:40;1.83;;;1.33;;
74227;SDS011;62587;52.352;5.006;2022-09-11T14:31:48;1.88;;;1.50;;
74227;SDS011;62587;52.352;5.006;2022-09-11T14:34:27;2.47;;;1.60;;
74227;SDS011;62587;52.352;5.006;2022-09-11T14:37:06;3.83;;;1.80;;
74227;SDS011;62587;52.352;5.006;2022-09-11T14:39:44;1.90;;;1.50;;
74227;SDS011;62587;52.352;5.006;2022-09-11T14:42:13;2.58;;;1.55;;
74227;SDS011;62587;52.352;5.006;2022-09-11T14:44:41;2.13;;;1.60;;
74227;SDS011;62587;52.352;5.006;2022-09-11T14:47:14;2.80;;;1.55;;
74227;SDS011;62587;52.352;5.006;2022-09-11T14:49:44;1.80;;;1.50;;
74227;SDS011;62587;52.352;5.006;2022-09-11T14:52:14;2.53;;;1.80;;
74227;SDS011;62587;52.352;5.006;2022-09-11T14:54:40;2.50;;;1.80;;
74227;SDS011;62587;52.352;5.006;2022-09-11T14:57:26;2.75;;;1.83;;
74227;SDS011;62587;52.352;5.006;2022-09-11T14:59:54;3.15;;;2.00;;
74227;SDS011;62587;52.352;5.006;2022-09-11T15:02:24;3.42;;;1.85;;
74227;SDS011;62587;52.352;5.006;2022-09-11T15:04:51;2.90;;;1.70;;
74227;SDS011;62587;52.352;5.006;2022-09-11T15:07:17;3.55;;;2.10;;
74227;SDS011;62587;52.352;5.006;2022-09-11T15:09:44;4.05;;;2.10;;
74227;SDS011;62587;52.352;5.006;2022-09-11T15:12:11;2.75;;;1.70;;
74227;SDS011;62587;52.352;5.006;2022-09-11T15:14:38;5.30;;;1.90;;
74227;SDS011;62587;52.352;5.006;2022-09-11T15:17:04;3.65;;;1.80;;
74227;SDS011;62587;52.352;5.006;2022-09-11T15:19:32;1.90;;;1.52;;
74227;SDS011;62587;52.352;5.006;2022-09-11T15:24:26;4.38;;;2.45;;
74227;SDS011;62587;52.352;5.006;2022-09-11T15:26:52;2.72;;;2.03;;
74227;SDS011;62587;52.352;5.006;2022-09-11T15:29:21;5.20;;;2.42;;
74227;SDS011;62587;52.352;5.006;2022-09-11T15:31:49;3.80;;;2.20;;
74227;SDS011;62587;52.352;5.006;2022-09-11T15:36:43;2.22;;;2.00;;
74227;SDS011;62587;52.352;5.006;2022-09-11T15:39:12;4.32;;;2.17;;
74227;SDS011;62587;52.352;5.006;2022-09-11T15:41:43;3.15;;;2.10;;
74227;SDS011;62587;52.352;5.006;2022-09-11T15:44:10;2.70;;;1.80;;
74227;SDS011;62587;52.352;5.006;2022-09-11T15:46:37;2.97;;;2.00;;
74227;SDS011;62587;52.352;5.006;2022-09-11T15:49:03;3.03;;;1.73;;
74227;SDS011;62587;52.352;5.006;2022-09-11T15:51:29;2.60;;;1.92;;
74227;SDS011;62587;52.352;5.006;2022-09-11T15:54:00;3.72;;;1.70;;
74227;SDS011;62587;52.352;5.006;2022-09-11T15:56:27;2.40;;;1.77;;
74227;SDS011;62587;52.352;5.006;2022-09-11T15:58:55;4.50;;;1.63;;
74227;SDS011;62587;52.352;5.006;2022-09-11T16:01:23;2.25;;;1.75;;
74227;SDS011;62587;52.352;5.006;2022-09-11T16:03:57;2.97;;;1.60;;
74227;SDS011;62587;52.352;5.006;2022-09-11T16:06:25;2.40;;;1.70;;
74227;SDS011;62587;52.352;5.006;2022-09-11T16:08:56;2.10;;;1.35;;
74227;SDS011;62587;52.352;5.006;2022-09-11T16:11:23;2.03;;;1.50;;
74227;SDS011;62587;52.352;5.006;2022-09-11T16:13:49;3.15;;;1.90;;
74227;SDS011;62587;52.352;5.006;2022-09-11T16:16:16;3.40;;;1.83;;
74227;SDS011;62587;52.352;5.006;2022-09-11T16:18:42;2.85;;;1.95;;
74227;SDS011;62587;52.352;5.006;2022-09-11T16:21:07;2.65;;;1.98;;
74227;SDS011;62587;52.352;5.006;2022-09-11T16:23:34;2.47;;;1.85;;
74227;SDS011;62587;52.352;5.006;2022-09-11T16:26:04;3.67;;;1.95;;
74227;SDS011;62587;52.352;5.006;2022-09-11T16:28:32;4.13;;;1.90;;
74227;SDS011;62587;52.352;5.006;2022-09-11T16:30:58;2.78;;;1.85;;
74227;SDS011;62587;52.352;5.006;2022-09-11T16:33:24;3.25;;;1.92;;
74227;SDS011;62587;52.352;5.006;2022-09-11T16:36:02;2.67;;;2.20;;
74227;SDS011;62587;52.352;5.006;2022-09-11T16:38:30;3.30;;;1.80;;
74227;SDS011;62587;52.352;5.006;2022-09-11T16:41:04;2.97;;;2.13;;
74227;SDS011;62587;52.352;5.006;2022-09-11T16:43:35;2.15;;;1.92;;
74227;SDS011;62587;52.352;5.006;2022-09-11T16:46:01;2.67;;;1.90;;
74227;SDS011;62587;52.352;5.006;2022-09-11T16:48:28;4.45;;;1.77;;
74227;SDS011;62587;52.352;5.006;2022-09-11T16:50:54;4.07;;;1.85;;
74227;SDS011;62587;52.352;5.006;2022-09-11T16:53:22;2.20;;;1.60;;
74227;SDS011;62587;52.352;5.006;2022-09-11T16:55:49;3.53;;;1.90;;
74227;SDS011;62587;52.352;5.006;2022-09-11T16:58:15;2.60;;;1.77;;
74227;SDS011;62587;52.352;5.006;2022-09-11T17:00:41;2.53;;;1.90;;
74227;SDS011;62587;52.352;5.006;2022-09-11T17:03:07;4.28;;;1.63;;
74227;SDS011;62587;52.352;5.006;2022-09-11T17:05:33;2.20;;;1.80;;
74227;SDS011;62587;52.352;5.006;2022-09-11T17:07:59;2.38;;;1.60;;
74227;SDS011;62587;52.352;5.006;2022-09-11T17:10:24;2.83;;;2.05;;
74227;SDS011;62587;52.352;5.006;2022-09-11T17:12:50;2.33;;;2.08;;
74227;SDS011;62587;52.352;5.006;2022-09-11T17:15:17;4.60;;;1.92;;
74227;SDS011;62587;52.352;5.006;2022-09-11T17:17:43;2.47;;;1.77;;
74227;SDS011;62587;52.352;5.006;2022-09-11T17:20:09;2.95;;;1.90;;
74227;SDS011;62587;52.352;5.006;2022-09-11T17:22:36;4.13;;;2.15;;
74227;SDS011;62587;52.352;5.006;2022-09-11T17:25:02;4.82;;;1.83;;
74227;SDS011;62587;52.352;5.006;2022-09-11T17:27:28;3.92;;;2.00;;
74227;SDS011;62587;52.352;5.006;2022-09-11T17:29:54;4.30;;;1.88;;